sensor_id;sensor_type;location;lat;lon;timestamp;temperature;humidity
4249;DHT22;8404;48.752;12.922;2022-08-03T00:01:36;18.70;78.50
4249;DHT22;8404;48.752;12.922;2022-08-03T00:04:06;18.70;78.90
4249;DHT22;8404;48.752;12.922;2022-08-03T00:06:35;18.70;79.20
4249;DHT22;8404;48.752;12.922;2022-08-03T00:09:04;18.70;79.00
4249;DHT22;8404;48.752;12.922;2022-08-03T00:11:34;18.60;79.90
4249;DHT22;8404;48.752;12.922;2022-08-03T00:14:03;18.60;79.30
4249;DHT22;8404;48.752;12.922;2022-08-03T00:16:31;18.60;79.50
4249;DHT22;8404;48.752;12.922;2022-08-03T00:18:59;18.50;79.60
4249;DHT22;8404;48.752;12.922;2022-08-03T00:21:28;18.50;79.60
4249;DHT22;8404;48.752;12.922;2022-08-03T00:23:56;18.50;80.10
4249;DHT22;8404;48.752;12.922;2022-08-03T00:26:24;18.40;80.00
4249;DHT22;8404;48.752;12.922;2022-08-03T00:28:54;18.40;80.00
4249;DHT22;8404;48.752;12.922;2022-08-03T00:31:22;18.40;80.60
4249;DHT22;8404;48.752;12.922;2022-08-03T00:34:10;18.40;80.40
4249;DHT22;8404;48.752;12.922;2022-08-03T00:36:39;18.40;80.30
4249;DHT22;8404;48.752;12.922;2022-08-03T00:39:07;18.30;81.00
4249;DHT22;8404;48.752;12.922;2022-08-03T00:41:36;18.30;81.30
4249;DHT22;8404;48.752;12.922;2022-08-03T00:44:05;18.30;81.50
4249;DHT22;8404;48.752;12.922;2022-08-03T00:46:33;18.30;81.50
4249;DHT22;8404;48.752;12.922;2022-08-03T00:49:01;18.20;81.50
4249;DHT22;8404;48.752;12.922;2022-08-03T00:51:30;18.20;81.60
4249;DHT22;8404;48.752;12.922;2022-08-03T00:54:00;18.30;81.60
4249;DHT22;8404;48.752;12.922;2022-08-03T00:56:29;18.20;81.60
4249;DHT22;8404;48.752;12.922;2022-08-03T00:58:57;18.20;81.80
4249;DHT22;8404;48.752;12.922;2022-08-03T01:01:27;18.20;82.10
4249;DHT22;8404;48.752;12.922;2022-08-03T01:03:58;18.20;82.00
4249;DHT22;8404;48.752;12.922;2022-08-03T01:06:35;18.20;82.10
4249;DHT22;8404;48.752;12.922;2022-08-03T01:09:13;18.20;82.30
4249;DHT22;8404;48.752;12.922;2022-08-03T01:11:49;18.10;82.80
4249;DHT22;8404;48.752;12.922;2022-08-03T01:14:32;18.10;82.90
4249;DHT22;8404;48.752;12.922;2022-08-03T01:17:09;18.10;83.00
4249;DHT22;8404;48.752;12.922;2022-08-03T01:19:45;18.10;83.10
4249;DHT22;8404;48.752;12.922;2022-08-03T01:22:39;18.00;83.30
4249;DHT22;8404;48.752;12.922;2022-08-03T01:25:23;18.00;83.30
4249;DHT22;8404;48.752;12.922;2022-08-03T01:28:02;18.00;83.40
4249;DHT22;8404;48.752;12.922;2022-08-03T01:30:40;17.90;83.50
4249;DHT22;8404;48.752;12.922;2022-08-03T01:33:14;17.90;83.80
4249;DHT22;8404;48.752;12.922;2022-08-03T01:35:47;17.90;83.90
4249;DHT22;8404;48.752;12.922;2022-08-03T01:38:21;17.80;83.90
4249;DHT22;8404;48.752;12.922;2022-08-03T01:40:52;17.80;84.00
4249;DHT22;8404;48.752;12.922;2022-08-03T01:43:24;17.70;84.20
4249;DHT22;8404;48.752;12.922;2022-08-03T01:46:16;17.70;84.50
4249;DHT22;8404;48.752;12.922;2022-08-03T01:48:47;17.70;84.50
4249;DHT22;8404;48.752;12.922;2022-08-03T01:51:18;17.70;84.60
4249;DHT22;8404;48.752;12.922;2022-08-03T01:53:48;17.60;84.70
4249;DHT22;8404;48.752;12.922;2022-08-03T01:56:18;17.60;85.50
4249;DHT22;8404;48.752;12.922;2022-08-03T01:58:49;17.60;85.10
4249;DHT22;8404;48.752;12.922;2022-08-03T02:01:19;17.60;85.30
4249;DHT22;8404;48.752;12.922;2022-08-03T02:03:49;17.50;85.50
4249;DHT22;8404;48.752;12.922;2022-08-03T02:06:29;17.50;85.60
4249;DHT22;8404;48.752;12.922;2022-08-03T02:09:20;17.50;86.20
4249;DHT22;8404;48.752;12.922;2022-08-03T02:11:50;17.50;86.20
4249;DHT22;8404;48.752;12.922;2022-08-03T02:14:19;17.50;86.00
4249;DHT22;8404;48.752;12.922;2022-08-03T02:16:51;17.50;85.70
4249;DHT22;8404;48.752;12.922;2022-08-03T02:19:20;17.40;85.90
4249;DHT22;8404;48.752;12.922;2022-08-03T02:21:50;17.40;86.00
4249;DHT22;8404;48.752;12.922;2022-08-03T02:24:27;17.30;86.10
4249;DHT22;8404;48.752;12.922;2022-08-03T02:26:56;17.30;86.50
4249;DHT22;8404;48.752;12.922;2022-08-03T02:29:29;17.30;86.60
4249;DHT22;8404;48.752;12.922;2022-08-03T02:32:09;17.20;86.50
4249;DHT22;8404;48.752;12.922;2022-08-03T02:34:41;17.20;86.80
4249;DHT22;8404;48.752;12.922;2022-08-03T02:37:12;17.10;86.60
4249;DHT22;8404;48.752;12.922;2022-08-03T02:39:42;17.20;87.30
4249;DHT22;8404;48.752;12.922;2022-08-03T02:42:13;17.10;87.30
4249;DHT22;8404;48.752;12.922;2022-08-03T02:44:45;17.10;87.50
4249;DHT22;8404;48.752;12.922;2022-08-03T02:47:18;17.00;87.60
4249;DHT22;8404;48.752;12.922;2022-08-03T02:49:48;17.10;87.40
4249;DHT22;8404;48.752;12.922;2022-08-03T02:52:20;17.10;87.30
4249;DHT22;8404;48.752;12.922;2022-08-03T02:54:52;17.00;87.60
4249;DHT22;8404;48.752;12.922;2022-08-03T02:57:22;17.00;87.60
4249;DHT22;8404;48.752;12.922;2022-08-03T02:59:53;17.00;87.60
4249;DHT22;8404;48.752;12.922;2022-08-03T03:02:24;17.00;87.80
4249;DHT22;8404;48.752;12.922;2022-08-03T03:04:54;16.90;88.30
4249;DHT22;8404;48.752;12.922;2022-08-03T03:07:43;16.90;88.00
4249;DHT22;8404;48.752;12.922;2022-08-03T03:10:19;16.90;88.30
4249;DHT22;8404;48.752;12.922;2022-08-03T03:12:49;16.80;88.40
4249;DHT22;8404;48.752;12.922;2022-08-03T03:15:18;16.90;88.50
4249;DHT22;8404;48.752;12.922;2022-08-03T03:17:48;16.90;88.60
4249;DHT22;8404;48.752;12.922;2022-08-03T03:20:17;16.80;88.90
4249;DHT22;8404;48.752;12.922;2022-08-03T03:22:58;16.80;89.00
4249;DHT22;8404;48.752;12.922;2022-08-03T03:25:28;16.80;89.00
4249;DHT22;8404;48.752;12.922;2022-08-03T03:27:58;16.80;89.00
4249;DHT22;8404;48.752;12.922;2022-08-03T03:30:27;16.80;88.90
4249;DHT22;8404;48.752;12.922;2022-08-03T03:32:57;16.70;89.30
4249;DHT22;8404;48.752;12.922;2022-08-03T03:35:26;16.70;89.20
4249;DHT22;8404;48.752;12.922;2022-08-03T03:37:55;16.70;89.20
4249;DHT22;8404;48.752;12.922;2022-08-03T03:40:24;16.70;89.30
4249;DHT22;8404;48.752;12.922;2022-08-03T03:42:52;16.60;89.40
4249;DHT22;8404;48.752;12.922;2022-08-03T03:45:21;16.70;90.10
4249;DHT22;8404;48.752;12.922;2022-08-03T03:47:50;16.60;90.00
4249;DHT22;8404;48.752;12.922;2022-08-03T03:50:21;16.60;90.30
4249;DHT22;8404;48.752;12.922;2022-08-03T03:52:49;16.60;90.40
4249;DHT22;8404;48.752;12.922;2022-08-03T03:55:18;16.60;90.30
4249;DHT22;8404;48.752;12.922;2022-08-03T03:57:46;16.60;90.40
4249;DHT22;8404;48.752;12.922;2022-08-03T04:00:16;16.60;90.30
4249;DHT22;8404;48.752;12.922;2022-08-03T04:02:44;16.70;90.30
4249;DHT22;8404;48.752;12.922;2022-08-03T04:05:13;16.60;90.30
4249;DHT22;8404;48.752;12.922;2022-08-03T04:08:04;16.60;90.30
4249;DHT22;8404;48.752;12.922;2022-08-03T04:10:55;16.70;90.30
4249;DHT22;8404;48.752;12.922;2022-08-03T04:13:45;16.70;90.50
4249;DHT22;8404;48.752;12.922;2022-08-03T04:16:15;16.70;90.70
4249;DHT22;8404;48.752;12.922;2022-08-03T04:18:48;16.70;90.60
4249;DHT22;8404;48.752;12.922;2022-08-03T04:21:20;16.70;90.60
4249;DHT22;8404;48.752;12.922;2022-08-03T04:23:52;16.80;90.60
4249;DHT22;8404;48.752;12.922;2022-08-03T04:26:25;16.80;90.70
4249;DHT22;8404;48.752;12.922;2022-08-03T04:28:54;16.90;90.70
4249;DHT22;8404;48.752;12.922;2022-08-03T04:31:23;16.90;90.80
4249;DHT22;8404;48.752;12.922;2022-08-03T04:33:53;17.00;91.00
4249;DHT22;8404;48.752;12.922;2022-08-03T04:36:24;17.00;91.00
4249;DHT22;8404;48.752;12.922;2022-08-03T04:38:59;17.10;91.20
4249;DHT22;8404;48.752;12.922;2022-08-03T04:41:28;17.10;91.10
4249;DHT22;8404;48.752;12.922;2022-08-03T04:43:58;17.10;91.00
4249;DHT22;8404;48.752;12.922;2022-08-03T04:46:30;17.20;91.10
4249;DHT22;8404;48.752;12.922;2022-08-03T04:48:59;17.20;91.10
4249;DHT22;8404;48.752;12.922;2022-08-03T04:51:28;17.30;91.30
4249;DHT22;8404;48.752;12.922;2022-08-03T04:53:58;17.30;91.20
4249;DHT22;8404;48.752;12.922;2022-08-03T04:56:26;17.40;91.30
4249;DHT22;8404;48.752;12.922;2022-08-03T04:58:54;17.40;91.20
4249;DHT22;8404;48.752;12.922;2022-08-03T05:01:22;17.50;91.20
4249;DHT22;8404;48.752;12.922;2022-08-03T05:03:50;17.50;91.20
4249;DHT22;8404;48.752;12.922;2022-08-03T05:06:18;17.60;91.20
4249;DHT22;8404;48.752;12.922;2022-08-03T05:08:50;17.70;91.30
4249;DHT22;8404;48.752;12.922;2022-08-03T05:11:20;17.80;91.30
4249;DHT22;8404;48.752;12.922;2022-08-03T05:13:48;17.80;91.30
4249;DHT22;8404;48.752;12.922;2022-08-03T05:16:16;17.90;91.20
4249;DHT22;8404;48.752;12.922;2022-08-03T05:18:45;18.00;91.30
4249;DHT22;8404;48.752;12.922;2022-08-03T05:21:13;18.10;91.20
4249;DHT22;8404;48.752;12.922;2022-08-03T05:23:43;18.20;91.10
4249;DHT22;8404;48.752;12.922;2022-08-03T05:26:11;18.30;91.20
4249;DHT22;8404;48.752;12.922;2022-08-03T05:28:41;18.30;91.00
4249;DHT22;8404;48.752;12.922;2022-08-03T05:31:17;18.40;91.00
4249;DHT22;8404;48.752;12.922;2022-08-03T05:33:46;18.50;91.00
4249;DHT22;8404;48.752;12.922;2022-08-03T05:36:15;18.60;90.90
4249;DHT22;8404;48.752;12.922;2022-08-03T05:38:43;18.70;90.80
4249;DHT22;8404;48.752;12.922;2022-08-03T05:41:11;18.80;90.70
4249;DHT22;8404;48.752;12.922;2022-08-03T05:43:50;18.90;90.70
4249;DHT22;8404;48.752;12.922;2022-08-03T05:46:20;19.00;90.60
4249;DHT22;8404;48.752;12.922;2022-08-03T05:48:48;19.10;90.50
4249;DHT22;8404;48.752;12.922;2022-08-03T05:51:16;19.20;90.30
4249;DHT22;8404;48.752;12.922;2022-08-03T05:53:44;19.30;90.20
4249;DHT22;8404;48.752;12.922;2022-08-03T05:56:12;19.40;90.10
4249;DHT22;8404;48.752;12.922;2022-08-03T05:58:44;19.50;90.00
4249;DHT22;8404;48.752;12.922;2022-08-03T06:01:15;19.60;89.60
4249;DHT22;8404;48.752;12.922;2022-08-03T06:03:44;19.70;89.40
4249;DHT22;8404;48.752;12.922;2022-08-03T06:06:12;19.80;89.30
4249;DHT22;8404;48.752;12.922;2022-08-03T06:08:41;19.90;88.60
4249;DHT22;8404;48.752;12.922;2022-08-03T06:11:09;20.00;87.90
4249;DHT22;8404;48.752;12.922;2022-08-03T06:13:39;20.10;87.90
4249;DHT22;8404;48.752;12.922;2022-08-03T06:16:07;20.30;87.70
4249;DHT22;8404;48.752;12.922;2022-08-03T06:18:37;20.30;87.30
4249;DHT22;8404;48.752;12.922;2022-08-03T06:21:07;20.40;87.00
4249;DHT22;8404;48.752;12.922;2022-08-03T06:23:43;20.60;86.80
4249;DHT22;8404;48.752;12.922;2022-08-03T06:26:23;20.70;86.50
4249;DHT22;8404;48.752;12.922;2022-08-03T06:28:51;20.80;86.30
4249;DHT22;8404;48.752;12.922;2022-08-03T06:31:21;20.90;86.10
4249;DHT22;8404;48.752;12.922;2022-08-03T06:34:00;21.10;85.50
4249;DHT22;8404;48.752;12.922;2022-08-03T06:36:49;21.20;84.40
4249;DHT22;8404;48.752;12.922;2022-08-03T06:39:18;21.30;83.30
4249;DHT22;8404;48.752;12.922;2022-08-03T06:41:50;21.40;83.40
4249;DHT22;8404;48.752;12.922;2022-08-03T06:44:19;21.50;83.00
4249;DHT22;8404;48.752;12.922;2022-08-03T06:46:47;21.60;82.50
4249;DHT22;8404;48.752;12.922;2022-08-03T06:49:18;21.80;81.70
4249;DHT22;8404;48.752;12.922;2022-08-03T06:51:46;21.90;81.30
4249;DHT22;8404;48.752;12.922;2022-08-03T06:54:33;22.00;80.90
4249;DHT22;8404;48.752;12.922;2022-08-03T06:57:02;22.20;79.80
4249;DHT22;8404;48.752;12.922;2022-08-03T06:59:30;22.30;77.80
4249;DHT22;8404;48.752;12.922;2022-08-03T07:02:18;22.40;77.40
4249;DHT22;8404;48.752;12.922;2022-08-03T07:04:48;22.60;77.60
4249;DHT22;8404;48.752;12.922;2022-08-03T07:07:16;22.70;77.50
4249;DHT22;8404;48.752;12.922;2022-08-03T07:09:45;22.80;76.50
4249;DHT22;8404;48.752;12.922;2022-08-03T07:12:25;22.90;76.40
4249;DHT22;8404;48.752;12.922;2022-08-03T07:14:53;23.00;76.10
4249;DHT22;8404;48.752;12.922;2022-08-03T07:17:27;23.10;74.50
4249;DHT22;8404;48.752;12.922;2022-08-03T07:19:57;23.20;74.50
4249;DHT22;8404;48.752;12.922;2022-08-03T07:22:25;23.30;74.40
4249;DHT22;8404;48.752;12.922;2022-08-03T07:24:54;23.50;74.80
4249;DHT22;8404;48.752;12.922;2022-08-03T07:27:22;23.60;73.70
4249;DHT22;8404;48.752;12.922;2022-08-03T07:29:52;23.70;73.00
4249;DHT22;8404;48.752;12.922;2022-08-03T07:32:21;23.80;73.40
4249;DHT22;8404;48.752;12.922;2022-08-03T07:34:49;23.90;73.30
4249;DHT22;8404;48.752;12.922;2022-08-03T07:37:18;24.00;72.80
4249;DHT22;8404;48.752;12.922;2022-08-03T07:39:46;24.20;72.30
4249;DHT22;8404;48.752;12.922;2022-08-03T07:42:15;24.30;70.80
4249;DHT22;8404;48.752;12.922;2022-08-03T07:44:43;24.30;70.20
4249;DHT22;8404;48.752;12.922;2022-08-03T07:47:12;24.50;70.10
4249;DHT22;8404;48.752;12.922;2022-08-03T07:49:48;24.60;69.80
4249;DHT22;8404;48.752;12.922;2022-08-03T07:52:18;24.60;69.90
4249;DHT22;8404;48.752;12.922;2022-08-03T07:55:17;24.70;69.40
4249;DHT22;8404;48.752;12.922;2022-08-03T07:57:46;24.80;67.70
4249;DHT22;8404;48.752;12.922;2022-08-03T08:00:17;25.00;68.60
4249;DHT22;8404;48.752;12.922;2022-08-03T08:02:46;25.10;68.40
4249;DHT22;8404;48.752;12.922;2022-08-03T08:05:14;25.20;68.10
4249;DHT22;8404;48.752;12.922;2022-08-03T08:07:43;25.30;67.30
4249;DHT22;8404;48.752;12.922;2022-08-03T08:10:17;25.40;67.60
4249;DHT22;8404;48.752;12.922;2022-08-03T08:12:46;25.40;66.50
4249;DHT22;8404;48.752;12.922;2022-08-03T08:15:14;25.50;66.80
4249;DHT22;8404;48.752;12.922;2022-08-03T08:17:44;25.60;65.70
4249;DHT22;8404;48.752;12.922;2022-08-03T08:20:16;25.70;66.50
4249;DHT22;8404;48.752;12.922;2022-08-03T08:22:57;25.90;65.50
4249;DHT22;8404;48.752;12.922;2022-08-03T08:25:28;26.00;64.10
4249;DHT22;8404;48.752;12.922;2022-08-03T08:27:58;26.10;63.50
4249;DHT22;8404;48.752;12.922;2022-08-03T08:30:48;26.10;63.00
4249;DHT22;8404;48.752;12.922;2022-08-03T08:33:16;26.20;61.80
4249;DHT22;8404;48.752;12.922;2022-08-03T08:35:52;26.30;62.70
4249;DHT22;8404;48.752;12.922;2022-08-03T08:38:22;26.40;62.90
4249;DHT22;8404;48.752;12.922;2022-08-03T08:40:50;26.60;61.00
4249;DHT22;8404;48.752;12.922;2022-08-03T08:43:18;26.60;61.30
4249;DHT22;8404;48.752;12.922;2022-08-03T08:45:48;26.60;60.80
4249;DHT22;8404;48.752;12.922;2022-08-03T08:48:20;26.80;60.60
4249;DHT22;8404;48.752;12.922;2022-08-03T08:50:52;26.90;59.80
4249;DHT22;8404;48.752;12.922;2022-08-03T08:53:23;27.00;60.50
4249;DHT22;8404;48.752;12.922;2022-08-03T08:55:54;27.10;59.70
4249;DHT22;8404;48.752;12.922;2022-08-03T08:58:29;27.20;59.50
4249;DHT22;8404;48.752;12.922;2022-08-03T09:00:58;27.20;58.80
4249;DHT22;8404;48.752;12.922;2022-08-03T09:03:27;27.30;57.80
4249;DHT22;8404;48.752;12.922;2022-08-03T09:05:58;27.40;58.00
4249;DHT22;8404;48.752;12.922;2022-08-03T09:08:30;27.50;57.40
4249;DHT22;8404;48.752;12.922;2022-08-03T09:10:58;27.60;56.60
4249;DHT22;8404;48.752;12.922;2022-08-03T09:13:26;27.60;56.80
4249;DHT22;8404;48.752;12.922;2022-08-03T09:16:13;27.70;55.30
4249;DHT22;8404;48.752;12.922;2022-08-03T09:18:44;27.80;55.90
4249;DHT22;8404;48.752;12.922;2022-08-03T09:21:17;27.90;55.10
4249;DHT22;8404;48.752;12.922;2022-08-03T09:24:05;28.00;54.70
4249;DHT22;8404;48.752;12.922;2022-08-03T09:26:51;28.10;53.70
4249;DHT22;8404;48.752;12.922;2022-08-03T09:29:20;28.30;53.10
4249;DHT22;8404;48.752;12.922;2022-08-03T09:31:48;28.40;53.50
4249;DHT22;8404;48.752;12.922;2022-08-03T09:34:26;28.50;53.60
4249;DHT22;8404;48.752;12.922;2022-08-03T09:36:55;28.60;52.50
4249;DHT22;8404;48.752;12.922;2022-08-03T09:39:26;28.70;52.30
4249;DHT22;8404;48.752;12.922;2022-08-03T09:42:09;28.80;52.30
4249;DHT22;8404;48.752;12.922;2022-08-03T09:44:42;28.80;50.80
4249;DHT22;8404;48.752;12.922;2022-08-03T09:47:14;28.80;51.30
4249;DHT22;8404;48.752;12.922;2022-08-03T09:49:56;29.00;50.60
4249;DHT22;8404;48.752;12.922;2022-08-03T09:52:30;29.00;50.50
4249;DHT22;8404;48.752;12.922;2022-08-03T09:55:20;29.10;50.00
4249;DHT22;8404;48.752;12.922;2022-08-03T09:58:10;29.20;49.10
4249;DHT22;8404;48.752;12.922;2022-08-03T10:00:54;29.20;49.10
4249;DHT22;8404;48.752;12.922;2022-08-03T10:03:24;29.20;47.00
4249;DHT22;8404;48.752;12.922;2022-08-03T10:05:53;29.30;47.10
4249;DHT22;8404;48.752;12.922;2022-08-03T10:08:26;29.40;46.80
4249;DHT22;8404;48.752;12.922;2022-08-03T10:10:55;29.50;47.70
4249;DHT22;8404;48.752;12.922;2022-08-03T10:13:26;29.60;47.10
4249;DHT22;8404;48.752;12.922;2022-08-03T10:15:54;29.60;46.50
4249;DHT22;8404;48.752;12.922;2022-08-03T10:18:42;29.70;46.50
4249;DHT22;8404;48.752;12.922;2022-08-03T10:21:15;29.80;46.50
4249;DHT22;8404;48.752;12.922;2022-08-03T10:23:45;29.90;46.90
4249;DHT22;8404;48.752;12.922;2022-08-03T10:26:18;30.00;45.80
4249;DHT22;8404;48.752;12.922;2022-08-03T10:28:49;30.00;46.10
4249;DHT22;8404;48.752;12.922;2022-08-03T10:31:21;30.20;45.80
4249;DHT22;8404;48.752;12.922;2022-08-03T10:33:51;30.30;45.80
4249;DHT22;8404;48.752;12.922;2022-08-03T10:36:26;30.40;46.30
4249;DHT22;8404;48.752;12.922;2022-08-03T10:38:58;30.40;45.40
4249;DHT22;8404;48.752;12.922;2022-08-03T10:41:32;30.40;45.80
4249;DHT22;8404;48.752;12.922;2022-08-03T10:44:04;30.50;46.00
4249;DHT22;8404;48.752;12.922;2022-08-03T10:46:33;30.60;45.00
4249;DHT22;8404;48.752;12.922;2022-08-03T10:49:12;30.60;45.20
4249;DHT22;8404;48.752;12.922;2022-08-03T10:51:42;30.80;45.00
4249;DHT22;8404;48.752;12.922;2022-08-03T10:54:36;30.90;43.90
4249;DHT22;8404;48.752;12.922;2022-08-03T10:57:58;30.90;43.70
4249;DHT22;8404;48.752;12.922;2022-08-03T11:00:27;31.00;44.50
4249;DHT22;8404;48.752;12.922;2022-08-03T11:03:07;31.10;43.90
4249;DHT22;8404;48.752;12.922;2022-08-03T11:05:38;31.20;42.40
4249;DHT22;8404;48.752;12.922;2022-08-03T11:08:28;31.30;42.60
4249;DHT22;8404;48.752;12.922;2022-08-03T11:10:59;31.40;42.20
4249;DHT22;8404;48.752;12.922;2022-08-03T11:13:30;31.60;42.00
4249;DHT22;8404;48.752;12.922;2022-08-03T11:16:02;31.60;41.90
4249;DHT22;8404;48.752;12.922;2022-08-03T11:18:55;31.60;42.10
4249;DHT22;8404;48.752;12.922;2022-08-03T11:21:51;31.60;40.60
4249;DHT22;8404;48.752;12.922;2022-08-03T11:24:57;31.70;40.80
4249;DHT22;8404;48.752;12.922;2022-08-03T11:27:32;31.80;41.20
4249;DHT22;8404;48.752;12.922;2022-08-03T11:30:03;31.80;41.00
4249;DHT22;8404;48.752;12.922;2022-08-03T11:32:50;31.90;40.80
4249;DHT22;8404;48.752;12.922;2022-08-03T11:35:19;32.00;39.20
4249;DHT22;8404;48.752;12.922;2022-08-03T11:38:07;32.00;39.80
4249;DHT22;8404;48.752;12.922;2022-08-03T11:40:38;32.00;39.50
4249;DHT22;8404;48.752;12.922;2022-08-03T11:43:08;32.10;39.30
4249;DHT22;8404;48.752;12.922;2022-08-03T11:45:38;32.10;39.90
4249;DHT22;8404;48.752;12.922;2022-08-03T11:48:26;32.20;39.40
4249;DHT22;8404;48.752;12.922;2022-08-03T11:50:55;32.20;38.50
4249;DHT22;8404;48.752;12.922;2022-08-03T11:53:24;32.30;38.30
4249;DHT22;8404;48.752;12.922;2022-08-03T11:55:52;32.30;38.00
4249;DHT22;8404;48.752;12.922;2022-08-03T11:58:21;32.40;38.30
4249;DHT22;8404;48.752;12.922;2022-08-03T12:01:11;32.50;38.20
4249;DHT22;8404;48.752;12.922;2022-08-03T12:03:49;32.50;37.10
4249;DHT22;8404;48.752;12.922;2022-08-03T12:06:18;32.50;37.10
4249;DHT22;8404;48.752;12.922;2022-08-03T12:08:46;32.60;37.50
4249;DHT22;8404;48.752;12.922;2022-08-03T12:11:15;32.60;37.50
4249;DHT22;8404;48.752;12.922;2022-08-03T12:13:44;32.70;38.00
4249;DHT22;8404;48.752;12.922;2022-08-03T12:16:34;32.80;38.00
4249;DHT22;8404;48.752;12.922;2022-08-03T12:19:03;33.00;38.80
4249;DHT22;8404;48.752;12.922;2022-08-03T12:21:32;33.00;38.60
4249;DHT22;8404;48.752;12.922;2022-08-03T12:24:02;33.10;38.50
4249;DHT22;8404;48.752;12.922;2022-08-03T12:26:42;33.10;37.40
4249;DHT22;8404;48.752;12.922;2022-08-03T12:29:22;33.20;38.00
4249;DHT22;8404;48.752;12.922;2022-08-03T12:31:53;33.20;37.50
4249;DHT22;8404;48.752;12.922;2022-08-03T12:34:22;33.30;37.30
4249;DHT22;8404;48.752;12.922;2022-08-03T12:36:56;33.30;36.00
4249;DHT22;8404;48.752;12.922;2022-08-03T12:39:27;33.30;36.40
4249;DHT22;8404;48.752;12.922;2022-08-03T12:41:58;33.30;36.90
4249;DHT22;8404;48.752;12.922;2022-08-03T12:44:29;33.40;37.20
4249;DHT22;8404;48.752;12.922;2022-08-03T12:47:00;33.40;37.40
4249;DHT22;8404;48.752;12.922;2022-08-03T12:49:43;33.50;37.70
4249;DHT22;8404;48.752;12.922;2022-08-03T12:52:12;33.60;37.40
4249;DHT22;8404;48.752;12.922;2022-08-03T12:54:40;33.60;37.80
4249;DHT22;8404;48.752;12.922;2022-08-03T12:57:11;33.70;38.50
4249;DHT22;8404;48.752;12.922;2022-08-03T12:59:43;33.80;38.00
4249;DHT22;8404;48.752;12.922;2022-08-03T13:02:21;33.80;38.60
4249;DHT22;8404;48.752;12.922;2022-08-03T13:04:52;33.80;37.80
4249;DHT22;8404;48.752;12.922;2022-08-03T13:07:21;33.80;37.80
4249;DHT22;8404;48.752;12.922;2022-08-03T13:09:51;33.80;37.50
4249;DHT22;8404;48.752;12.922;2022-08-03T13:12:21;33.90;37.70
4249;DHT22;8404;48.752;12.922;2022-08-03T13:14:51;33.90;37.60
4249;DHT22;8404;48.752;12.922;2022-08-03T13:17:20;34.10;38.10
4249;DHT22;8404;48.752;12.922;2022-08-03T13:19:49;34.20;38.20
4249;DHT22;8404;48.752;12.922;2022-08-03T13:22:19;34.30;37.60
4249;DHT22;8404;48.752;12.922;2022-08-03T13:24:49;34.30;37.40
4249;DHT22;8404;48.752;12.922;2022-08-03T13:27:18;34.50;37.80
4249;DHT22;8404;48.752;12.922;2022-08-03T13:30:07;34.50;35.90
4249;DHT22;8404;48.752;12.922;2022-08-03T13:32:37;34.50;37.00
4249;DHT22;8404;48.752;12.922;2022-08-03T13:35:06;34.60;37.40
4249;DHT22;8404;48.752;12.922;2022-08-03T13:37:34;34.70;37.10
4249;DHT22;8404;48.752;12.922;2022-08-03T13:40:04;34.80;36.00
4249;DHT22;8404;48.752;12.922;2022-08-03T13:42:37;34.70;36.30
4249;DHT22;8404;48.752;12.922;2022-08-03T13:45:06;34.80;37.30
4249;DHT22;8404;48.752;12.922;2022-08-03T13:47:35;35.00;37.50
4249;DHT22;8404;48.752;12.922;2022-08-03T13:50:05;35.30;37.30
4249;DHT22;8404;48.752;12.922;2022-08-03T13:52:35;36.10;35.70
4249;DHT22;8404;48.752;12.922;2022-08-03T13:55:05;37.80;35.30
4249;DHT22;8404;48.752;12.922;2022-08-03T13:57:34;39.90;33.30
4249;DHT22;8404;48.752;12.922;2022-08-03T14:00:22;41.80;32.80
4249;DHT22;8404;48.752;12.922;2022-08-03T14:02:56;44.00;31.50
4249;DHT22;8404;48.752;12.922;2022-08-03T14:05:33;45.70;29.30
4249;DHT22;8404;48.752;12.922;2022-08-03T14:08:01;47.10;29.30
4249;DHT22;8404;48.752;12.922;2022-08-03T14:10:33;48.30;28.60
4249;DHT22;8404;48.752;12.922;2022-08-03T14:13:02;49.30;27.80
4249;DHT22;8404;48.752;12.922;2022-08-03T14:15:30;50.30;27.70
4249;DHT22;8404;48.752;12.922;2022-08-03T14:18:04;51.00;27.50
4249;DHT22;8404;48.752;12.922;2022-08-03T14:20:40;51.50;26.80
4249;DHT22;8404;48.752;12.922;2022-08-03T14:23:20;52.00;26.40
4249;DHT22;8404;48.752;12.922;2022-08-03T14:25:48;52.20;26.80
4249;DHT22;8404;48.752;12.922;2022-08-03T14:28:20;52.50;26.90
4249;DHT22;8404;48.752;12.922;2022-08-03T14:30:50;52.90;26.40
4249;DHT22;8404;48.752;12.922;2022-08-03T14:33:18;52.90;26.40
4249;DHT22;8404;48.752;12.922;2022-08-03T14:35:48;52.80;26.10
4249;DHT22;8404;48.752;12.922;2022-08-03T14:38:16;52.80;25.90
4249;DHT22;8404;48.752;12.922;2022-08-03T14:40:44;53.20;26.40
4249;DHT22;8404;48.752;12.922;2022-08-03T14:43:13;53.50;26.40
4249;DHT22;8404;48.752;12.922;2022-08-03T14:45:43;53.50;26.40
4249;DHT22;8404;48.752;12.922;2022-08-03T14:48:11;53.80;26.10
4249;DHT22;8404;48.752;12.922;2022-08-03T14:51:01;53.90;26.40
4249;DHT22;8404;48.752;12.922;2022-08-03T14:53:29;53.80;25.70
4249;DHT22;8404;48.752;12.922;2022-08-03T14:55:57;54.00;25.80
4249;DHT22;8404;48.752;12.922;2022-08-03T14:58:25;54.20;25.60
4249;DHT22;8404;48.752;12.922;2022-08-03T15:00:54;54.10;25.50
4249;DHT22;8404;48.752;12.922;2022-08-03T15:03:23;53.90;25.80
4249;DHT22;8404;48.752;12.922;2022-08-03T15:05:53;54.10;25.80
4249;DHT22;8404;48.752;12.922;2022-08-03T15:08:24;54.00;25.90
4249;DHT22;8404;48.752;12.922;2022-08-03T15:10:52;54.40;25.70
4249;DHT22;8404;48.752;12.922;2022-08-03T15:13:21;54.30;25.60
4249;DHT22;8404;48.752;12.922;2022-08-03T15:15:51;54.40;25.70
4249;DHT22;8404;48.752;12.922;2022-08-03T15:18:19;54.50;25.50
4249;DHT22;8404;48.752;12.922;2022-08-03T15:20:47;54.70;25.80
4249;DHT22;8404;48.752;12.922;2022-08-03T15:23:17;54.60;25.70
4249;DHT22;8404;48.752;12.922;2022-08-03T15:25:47;54.60;25.90
4249;DHT22;8404;48.752;12.922;2022-08-03T15:28:35;54.30;25.80
4249;DHT22;8404;48.752;12.922;2022-08-03T15:31:04;54.30;25.80
4249;DHT22;8404;48.752;12.922;2022-08-03T15:33:32;54.20;25.60
4249;DHT22;8404;48.752;12.922;2022-08-03T15:36:01;54.30;25.50
4249;DHT22;8404;48.752;12.922;2022-08-03T15:38:29;54.60;25.60
4249;DHT22;8404;48.752;12.922;2022-08-03T15:40:59;54.50;25.70
4249;DHT22;8404;48.752;12.922;2022-08-03T15:43:27;54.50;25.60
4249;DHT22;8404;48.752;12.922;2022-08-03T15:45:55;54.20;25.40
4249;DHT22;8404;48.752;12.922;2022-08-03T15:48:44;53.80;25.30
4249;DHT22;8404;48.752;12.922;2022-08-03T15:51:12;53.50;25.70
4249;DHT22;8404;48.752;12.922;2022-08-03T15:53:40;53.00;25.60
4249;DHT22;8404;48.752;12.922;2022-08-03T15:56:10;52.70;25.60
4249;DHT22;8404;48.752;12.922;2022-08-03T15:58:44;52.60;25.90
4249;DHT22;8404;48.752;12.922;2022-08-03T16:01:32;52.30;26.00
4249;DHT22;8404;48.752;12.922;2022-08-03T16:04:00;52.10;25.90
4249;DHT22;8404;48.752;12.922;2022-08-03T16:06:30;52.30;25.80
4249;DHT22;8404;48.752;12.922;2022-08-03T16:09:03;52.40;25.70
4249;DHT22;8404;48.752;12.922;2022-08-03T16:11:51;52.40;25.80
4249;DHT22;8404;48.752;12.922;2022-08-03T16:14:20;52.10;26.00
4249;DHT22;8404;48.752;12.922;2022-08-03T16:17:02;51.80;25.50
4249;DHT22;8404;48.752;12.922;2022-08-03T16:19:30;51.90;25.60